createdAt,value
2019-03-22T00:00:30.607Z,2.23
2019-03-22T00:02:57.105Z,2.10
2019-03-22T00:05:23.460Z,2.50
2019-03-22T00:07:49.991Z,1.90
2019-03-22T00:10:16.252Z,2.00
2019-03-22T00:12:42.616Z,1.87
2019-03-22T00:15:09.373Z,2.10
2019-03-22T00:17:36.056Z,2.33
2019-03-22T00:20:05.163Z,2.30
2019-03-22T00:22:31.699Z,2.47
2019-03-22T00:24:57.959Z,2.30
2019-03-22T00:27:24.242Z,2.00
2019-03-22T00:29:50.598Z,2.57
2019-03-22T00:32:17.270Z,1.83
2019-03-22T00:34:43.805Z,1.57
2019-03-22T00:37:10.435Z,1.90
2019-03-22T00:39:36.779Z,2.00
2019-03-22T00:42:03.172Z,2.57
2019-03-22T00:44:29.527Z,2.50
2019-03-22T00:46:56.152Z,3.17
2019-03-22T00:49:22.782Z,2.60
2019-03-22T00:51:49.431Z,2.30
2019-03-22T00:54:17.065Z,2.33
2019-03-22T00:56:43.407Z,2.77
2019-03-22T00:59:09.689Z,2.10
2019-03-22T01:01:35.943Z,2.97
2019-03-22T01:04:02.339Z,2.80
2019-03-22T01:06:28.803Z,3.40
2019-03-22T01:08:55.171Z,3.30
2019-03-22T01:11:21.684Z,3.80
2019-03-22T01:13:48.071Z,2.70
2019-03-22T01:16:14.607Z,3.03
2019-03-22T01:18:40.995Z,3.50
2019-03-22T01:21:07.720Z,3.43
2019-03-22T01:23:34.108Z,3.03
2019-03-22T01:26:00.363Z,2.80
2019-03-22T01:28:26.665Z,3.10
2019-03-22T01:30:53.293Z,3.13
2019-03-22T01:33:19.669Z,3.87
2019-03-22T01:35:45.936Z,3.50
2019-03-22T01:38:12.285Z,4.00
2019-03-22T01:40:38.731Z,3.20
2019-03-22T01:43:05.398Z,3.17
2019-03-22T01:45:31.703Z,3.47
2019-03-22T01:47:57.999Z,3.10
2019-03-22T01:50:24.263Z,2.80
2019-03-22T01:52:50.888Z,3.57
2019-03-22T01:55:17.174Z,3.40
2019-03-22T01:57:52.965Z,3.97
2019-03-22T02:00:16.454Z,3.33
2019-03-22T02:02:42.899Z,3.40
2019-03-22T02:05:09.663Z,3.53
2019-03-22T02:07:36.938Z,2.73
2019-03-22T02:10:06.040Z,2.80
2019-03-22T02:12:32.397Z,2.80
2019-03-22T02:14:58.849Z,3.30
2019-03-22T02:17:25.355Z,3.10
2019-03-22T02:19:51.737Z,3.43
2019-03-22T02:22:18.028Z,3.57
2019-03-22T02:24:44.309Z,3.30
2019-03-22T02:27:10.725Z,3.30
2019-03-22T02:29:37.077Z,3.03
2019-03-22T02:32:05.651Z,2.57
2019-03-22T02:34:32.293Z,3.73
2019-03-22T02:36:58.934Z,3.37
2019-03-22T02:39:25.616Z,3.63
2019-03-22T02:41:52.010Z,3.23
2019-03-22T02:44:19.491Z,2.83
2019-03-22T02:46:45.834Z,3.13
2019-03-22T02:49:12.230Z,2.80
2019-03-22T02:51:38.584Z,2.97
2019-03-22T02:54:05.069Z,2.80
2019-03-22T02:56:31.437Z,3.27
2019-03-22T02:58:59.463Z,2.97
2019-03-22T03:01:26.131Z,2.50
2019-03-22T03:03:52.531Z,2.70
2019-03-22T03:06:18.941Z,2.67
2019-03-22T03:08:45.417Z,3.30
2019-03-22T03:11:11.798Z,3.00
2019-03-22T03:13:38.203Z,3.20
2019-03-22T03:16:04.834Z,2.90
2019-03-22T03:21:54.866Z,2.60
2019-03-22T03:24:21.570Z,2.47
2019-03-22T03:26:48.210Z,2.40
2019-03-22T03:29:14.901Z,3.40
2019-03-22T03:31:42.456Z,3.20
2019-03-22T03:34:08.920Z,3.70
2019-03-22T03:36:36.442Z,3.23
2019-03-22T03:39:05.816Z,2.63
2019-03-22T03:41:32.241Z,2.50
2019-03-22T03:43:58.891Z,2.80
2019-03-22T03:46:25.280Z,2.90
2019-03-22T03:48:51.683Z,2.47
2019-03-22T03:51:18.334Z,2.47
2019-03-22T03:53:44.689Z,2.63
2019-03-22T03:56:11.095Z,2.13
2019-03-22T03:58:51.667Z,2.10
2019-03-22T04:01:06.000Z,2.77
2019-03-22T04:03:32.362Z,2.57
2019-03-22T04:05:58.897Z,2.30
2019-03-22T04:08:25.246Z,2.30
2019-03-22T04:10:51.900Z,2.70
2019-03-22T04:13:18.270Z,3.47
2019-03-22T04:15:44.745Z,2.20
2019-03-22T04:18:11.120Z,2.17
2019-03-22T04:20:37.516Z,2.60
2019-03-22T04:23:03.998Z,2.70
2019-03-22T04:25:30.409Z,3.93
2019-03-22T04:27:56.816Z,3.13
2019-03-22T04:30:23.338Z,3.90
2019-03-22T04:32:50.006Z,2.80
2019-03-22T04:35:17.365Z,4.50
2019-03-22T04:37:44.016Z,3.43
2019-03-22T04:40:25.207Z,3.93
2019-03-22T04:42:51.720Z,3.20
2019-03-22T04:45:18.564Z,3.73
2019-03-22T04:47:46.153Z,4.10
2019-03-22T04:50:13.038Z,4.13
2019-03-22T04:52:40.511Z,3.10
2019-03-22T04:55:07.264Z,2.93
2019-03-22T04:57:34.379Z,2.53
2019-03-22T05:00:01.187Z,2.50
2019-03-22T05:02:32.947Z,3.33
2019-03-22T05:05:00.256Z,2.73
2019-03-22T05:07:27.970Z,2.40
2019-03-22T05:09:55.424Z,3.43
2019-03-22T05:12:23.732Z,3.60
2019-03-22T05:14:51.623Z,4.17
2019-03-22T05:17:18.380Z,4.50
2019-03-22T05:19:48.558Z,4.13
2019-03-22T05:22:18.193Z,4.10
2019-03-22T05:24:47.107Z,3.80
2019-03-22T05:27:15.132Z,3.87
2019-03-22T05:29:44.526Z,5.00
2019-03-22T05:32:12.874Z,3.90
2019-03-22T05:34:39.247Z,3.27
2019-03-22T05:37:05.764Z,4.20
2019-03-22T05:39:32.248Z,4.53
2019-03-22T05:41:58.949Z,5.97
2019-03-22T05:44:26.352Z,5.03
2019-03-22T05:46:53.143Z,5.47
2019-03-22T05:49:19.524Z,6.00
2019-03-22T05:51:45.912Z,5.47
2019-03-22T05:54:12.308Z,5.37
2019-03-22T05:56:39.274Z,5.40
2019-03-22T05:59:06.132Z,5.60
2019-03-22T06:01:32.593Z,5.33
2019-03-22T06:03:58.993Z,8.10
2019-03-22T06:06:33.211Z,7.77
2019-03-22T06:09:01.948Z,7.60
2019-03-22T06:11:30.177Z,6.80
2019-03-22T06:13:56.862Z,5.77
2019-03-22T06:16:23.742Z,5.20
2019-03-22T06:18:51.477Z,5.10
2019-03-22T06:21:17.761Z,4.97
2019-03-22T06:23:44.417Z,3.90
2019-03-22T06:26:11.086Z,4.73
2019-03-22T06:28:37.617Z,4.13
2019-03-22T06:31:04.330Z,4.40
2019-03-22T06:33:31.992Z,4.73
2019-03-22T06:35:58.657Z,4.43
2019-03-22T06:38:25.179Z,5.67
2019-03-22T06:40:51.796Z,6.30
2019-03-22T06:43:18.161Z,5.27
2019-03-22T06:45:44.427Z,5.13
2019-03-22T06:48:11.067Z,5.03
2019-03-22T06:50:37.460Z,4.80
2019-03-22T06:53:03.775Z,5.43
2019-03-22T06:55:30.270Z,4.83
2019-03-22T06:57:56.949Z,5.27
2019-03-22T07:00:23.344Z,4.60
2019-03-22T07:02:49.991Z,4.87
2019-03-22T07:05:16.638Z,4.93
2019-03-22T07:07:43.353Z,4.80
2019-03-22T07:10:09.933Z,6.30
2019-03-22T07:12:37.316Z,11.47
2019-03-22T07:15:06.855Z,16.20
2019-03-22T07:17:34.513Z,13.10
2019-03-22T07:20:00.801Z,8.73
2019-03-22T07:22:28.305Z,9.20
2019-03-22T07:24:54.687Z,11.03
2019-03-22T07:27:21.047Z,7.20
2019-03-22T07:29:47.745Z,7.60
2019-03-22T07:32:14.385Z,6.00
2019-03-22T07:34:40.921Z,6.27
2019-03-22T07:37:08.577Z,5.07
2019-03-22T07:39:35.177Z,5.10
2019-03-22T07:42:01.737Z,6.57
2019-03-22T07:44:28.127Z,5.60
2019-03-22T07:46:54.517Z,6.33
2019-03-22T07:49:20.901Z,5.97
2019-03-22T07:51:47.297Z,6.10
2019-03-22T07:54:13.669Z,5.60
2019-03-22T07:56:40.047Z,4.77
2019-03-22T07:59:06.784Z,4.90
2019-03-22T08:01:33.604Z,4.20
2019-03-22T08:04:00.078Z,5.03
2019-03-22T08:06:26.425Z,4.17
2019-03-22T08:08:53.112Z,4.40
2019-03-22T08:11:19.544Z,3.93
2019-03-22T08:13:46.916Z,4.13
2019-03-22T08:16:13.328Z,4.53
2019-03-22T08:18:39.753Z,4.10
2019-03-22T08:21:07.145Z,3.87
2019-03-22T08:23:33.667Z,4.53
2019-03-22T08:26:00.087Z,3.63
2019-03-22T08:28:26.654Z,4.20
2019-03-22T08:30:53.127Z,3.73
2019-03-22T08:33:19.806Z,3.50
2019-03-22T08:35:46.429Z,3.60
2019-03-22T08:38:12.949Z,3.30
2019-03-22T08:40:39.677Z,3.10
2019-03-22T08:43:06.083Z,3.67
2019-03-22T08:45:32.734Z,3.47
2019-03-22T08:47:59.145Z,3.77
2019-03-22T08:50:25.811Z,3.67
2019-03-22T08:52:52.247Z,3.83
2019-03-22T08:55:18.615Z,3.33
2019-03-22T08:57:44.885Z,3.13
2019-03-22T09:00:13.494Z,3.40
2019-03-22T09:02:40.890Z,3.70
2019-03-22T09:05:08.265Z,4.33
2019-03-22T09:07:35.337Z,4.30
2019-03-22T09:10:06.584Z,4.20
2019-03-22T09:12:33.948Z,3.60
2019-03-22T09:15:00.341Z,3.93
2019-03-22T09:17:26.740Z,3.30
2019-03-22T09:19:53.153Z,4.07
2019-03-22T09:22:19.522Z,4.10
2019-03-22T09:24:46.053Z,4.20
2019-03-22T09:27:12.432Z,4.30
2019-03-22T09:29:39.109Z,4.50
2019-03-22T09:32:05.620Z,5.37
2019-03-22T09:34:33.944Z,5.10
2019-03-22T09:37:00.208Z,5.20
2019-03-22T09:39:26.577Z,4.93
2019-03-22T09:41:53.077Z,5.93
2019-03-22T09:44:19.537Z,6.70
2019-03-22T09:46:46.216Z,6.90
2019-03-22T09:49:12.605Z,6.90
2019-03-22T09:51:38.992Z,7.20
2019-03-22T09:54:05.385Z,8.23
2019-03-22T09:56:31.902Z,8.50
2019-03-22T09:58:58.300Z,9.40
2019-03-22T10:01:24.813Z,6.40
2019-03-22T10:03:51.258Z,7.53
2019-03-22T10:06:18.916Z,7.43
2019-03-22T10:08:45.287Z,7.57
2019-03-22T10:11:11.739Z,7.47
2019-03-22T10:13:38.060Z,7.73
2019-03-22T10:16:04.565Z,8.10
2019-03-22T10:18:31.974Z,9.97
2019-03-22T10:20:58.489Z,8.17
2019-03-22T10:23:24.870Z,7.60
2019-03-22T10:25:52.266Z,6.60
2019-03-22T10:28:18.648Z,5.90
2019-03-22T10:30:45.081Z,5.90
2019-03-22T10:33:22.189Z,6.97
2019-03-22T10:35:39.877Z,6.57
2019-03-22T10:38:15.322Z,6.07
2019-03-22T10:40:34.891Z,6.10
2019-03-22T10:43:02.386Z,6.17
2019-03-22T10:45:28.745Z,6.50
2019-03-22T10:47:55.127Z,6.67
2019-03-22T10:50:21.548Z,5.97
2019-03-22T10:52:48.399Z,6.83
2019-03-22T10:55:29.291Z,6.03
2019-03-22T10:57:43.701Z,6.07
2019-03-22T11:00:13.593Z,5.10
2019-03-22T11:02:40.121Z,5.50
2019-03-22T11:05:07.144Z,5.43
2019-03-22T11:07:33.495Z,5.03
2019-03-22T11:10:00.020Z,5.20
2019-03-22T11:12:26.505Z,5.60
2019-03-22T11:14:52.884Z,5.60
2019-03-22T11:17:19.404Z,4.90
2019-03-22T11:19:46.019Z,5.07
2019-03-22T11:22:13.629Z,5.23
2019-03-22T11:24:41.017Z,4.87
2019-03-22T11:27:07.499Z,5.03
2019-03-22T11:29:35.156Z,4.77
2019-03-22T11:32:01.515Z,4.60
2019-03-22T11:34:29.161Z,4.83
2019-03-22T11:36:55.669Z,5.03
2019-03-22T11:39:22.053Z,4.47
2019-03-22T11:41:48.608Z,4.47
2019-03-22T11:44:14.857Z,5.17
2019-03-22T11:46:41.240Z,4.50
2019-03-22T11:49:07.725Z,4.53
2019-03-22T11:51:34.181Z,4.83
2019-03-22T11:54:00.591Z,4.57
2019-03-22T11:56:26.936Z,5.37
2019-03-22T11:58:53.416Z,4.93
2019-03-22T12:01:22.331Z,6.10
2019-03-22T12:03:48.552Z,5.40
2019-03-22T12:06:14.935Z,5.10
2019-03-22T12:08:41.718Z,4.40
2019-03-22T12:11:08.294Z,4.70
2019-03-22T12:13:34.928Z,4.67
2019-03-22T12:16:01.233Z,5.17
2019-03-22T12:18:27.859Z,4.70
2019-03-22T12:20:56.493Z,4.80
2019-03-22T12:23:22.644Z,5.10
2019-03-22T12:25:49.112Z,4.70
2019-03-22T12:28:15.692Z,5.03
2019-03-22T12:30:42.153Z,4.27
2019-03-22T12:33:09.779Z,5.77
2019-03-22T12:35:36.658Z,5.93
2019-03-22T12:38:03.247Z,5.20
2019-03-22T12:40:29.587Z,4.53
2019-03-22T12:42:56.701Z,4.13
2019-03-22T12:45:30.518Z,4.77
2019-03-22T12:47:57.027Z,4.77
2019-03-22T12:50:25.368Z,5.53
2019-03-22T12:52:51.763Z,5.10
2019-03-22T12:55:18.263Z,5.00
2019-03-22T12:57:44.669Z,5.00
2019-03-22T13:00:23.952Z,5.27
2019-03-22T13:02:50.916Z,5.33
2019-03-22T13:05:17.543Z,6.00
2019-03-22T13:07:44.296Z,5.40
2019-03-22T13:10:13.760Z,4.20
2019-03-22T13:12:40.419Z,5.10
2019-03-22T13:15:07.715Z,6.23
2019-03-22T13:17:34.360Z,5.63
2019-03-22T13:20:01.040Z,6.70
2019-03-22T13:22:27.480Z,5.20
2019-03-22T13:24:53.859Z,4.60
2019-03-22T13:27:20.538Z,5.20
2019-03-22T13:29:47.902Z,5.03
2019-03-22T13:32:14.664Z,4.67
2019-03-22T13:34:42.196Z,5.13
2019-03-22T13:37:08.535Z,5.10
2019-03-22T13:39:35.196Z,5.30
2019-03-22T13:42:01.574Z,5.20
2019-03-22T13:44:27.949Z,4.97
2019-03-22T13:46:54.379Z,5.57
2019-03-22T13:49:20.872Z,4.87
2019-03-22T13:51:47.535Z,5.00
2019-03-22T13:54:14.204Z,5.13
2019-03-22T13:56:40.561Z,5.00
2019-03-22T13:59:07.118Z,5.17
2019-03-22T14:01:33.772Z,5.23
2019-03-22T14:04:02.300Z,5.00
2019-03-22T14:06:28.712Z,5.40
2019-03-22T14:08:55.067Z,4.90
2019-03-22T14:11:21.364Z,5.20
2019-03-22T14:13:47.712Z,5.00
2019-03-22T14:16:14.025Z,5.93
2019-03-22T14:18:40.681Z,5.40
2019-03-22T14:21:07.223Z,5.90
2019-03-22T14:23:33.880Z,5.77
2019-03-22T14:26:00.476Z,5.07
2019-03-22T14:28:26.821Z,6.00
2019-03-22T14:30:53.465Z,5.83
2019-03-22T14:33:19.763Z,5.10
2019-03-22T14:35:47.743Z,6.17
2019-03-22T14:38:14.512Z,7.20
2019-03-22T14:40:40.813Z,6.70
2019-03-22T14:43:07.452Z,6.53
2019-03-22T14:45:33.928Z,6.93
2019-03-22T14:48:00.277Z,6.60
2019-03-22T14:50:26.697Z,6.23
2019-03-22T14:52:53.530Z,5.40
2019-03-22T14:55:19.913Z,6.17
2019-03-22T14:57:49.934Z,6.10
2019-03-22T15:00:14.917Z,9.17
2019-03-22T15:02:41.400Z,7.50
2019-03-22T15:05:08.132Z,8.43
2019-03-22T15:07:34.627Z,8.37
2019-03-22T15:10:03.803Z,7.70
2019-03-22T15:12:30.468Z,7.97
2019-03-22T15:15:07.904Z,6.60
2019-03-22T15:17:38.938Z,7.60
2019-03-22T15:20:19.361Z,7.50
2019-03-22T15:23:04.607Z,8.27
2019-03-22T15:25:49.296Z,8.10
2019-03-22T15:28:34.108Z,7.83
2019-03-22T15:31:19.097Z,6.67
2019-03-22T15:33:53.554Z,7.33
2019-03-22T15:36:38.516Z,7.53
2019-03-22T15:39:17.561Z,6.97
2019-03-22T15:41:43.956Z,6.90
2019-03-22T15:44:10.670Z,8.20
2019-03-22T15:46:37.296Z,7.27
2019-03-22T15:49:03.996Z,7.83
2019-03-22T15:51:30.458Z,8.20
2019-03-22T15:53:56.828Z,7.87
2019-03-22T15:56:23.598Z,7.80
2019-03-22T15:58:50.294Z,7.80
2019-03-22T16:01:16.939Z,6.57
2019-03-22T16:03:44.481Z,7.37
2019-03-22T16:06:11.323Z,8.70
2019-03-22T16:08:37.895Z,8.97
2019-03-22T16:11:04.574Z,7.17
2019-03-22T16:13:30.961Z,7.67
2019-03-22T16:15:57.342Z,6.40
2019-03-22T16:18:23.973Z,8.50
2019-03-22T16:20:56.125Z,8.57
2019-03-22T16:23:18.882Z,8.50
2019-03-22T16:25:45.246Z,8.47
2019-03-22T16:28:11.914Z,7.63
2019-03-22T16:30:38.245Z,9.00
2019-03-22T16:33:04.970Z,8.63
2019-03-22T16:35:31.317Z,8.30
2019-03-22T16:37:57.711Z,7.60
2019-03-22T16:40:24.685Z,7.97
2019-03-22T16:42:51.052Z,7.43
2019-03-22T16:45:32.856Z,7.30
2019-03-22T16:47:59.200Z,7.23
2019-03-22T16:50:25.500Z,7.40
2019-03-22T16:52:51.774Z,8.10
2019-03-22T16:55:18.473Z,8.33
2019-03-22T16:57:44.828Z,8.93
2019-03-22T17:00:11.351Z,9.10
2019-03-22T17:02:38.716Z,7.97
2019-03-22T17:05:06.394Z,8.80
2019-03-22T17:07:32.777Z,8.13
2019-03-22T17:09:59.138Z,7.80
2019-03-22T17:12:25.441Z,9.30
2019-03-22T17:14:51.794Z,10.00
2019-03-22T17:17:18.184Z,9.27
2019-03-22T17:19:45.003Z,7.93
2019-03-22T17:22:11.504Z,7.90
2019-03-22T17:24:37.776Z,8.40
2019-03-22T17:27:04.205Z,7.97
2019-03-22T17:29:30.561Z,8.20
2019-03-22T17:31:57.048Z,7.83
2019-03-22T17:34:23.702Z,8.93
2019-03-22T17:36:50.409Z,7.73
2019-03-22T17:39:17.463Z,8.87
2019-03-22T17:41:44.137Z,7.67
2019-03-22T17:44:10.820Z,8.53
2019-03-22T17:46:37.179Z,8.87
2019-03-22T17:49:03.771Z,8.77
2019-03-22T17:51:30.310Z,8.27
2019-03-22T17:53:56.691Z,8.13
2019-03-22T17:56:23.244Z,8.83
2019-03-22T17:58:49.626Z,9.50
2019-03-22T18:01:16.384Z,10.67
2019-03-22T18:03:43.075Z,8.87
2019-03-22T18:06:11.588Z,8.33
2019-03-22T18:08:39.008Z,8.13
2019-03-22T18:11:08.795Z,7.60
2019-03-22T18:13:35.184Z,8.80
2019-03-22T18:16:01.762Z,7.83
2019-03-22T18:18:28.546Z,8.43
2019-03-22T18:20:55.443Z,8.73
2019-03-22T18:23:22.244Z,9.43
2019-03-22T18:25:49.024Z,10.20
2019-03-22T18:28:15.372Z,9.87
2019-03-22T18:30:42.060Z,9.77
2019-03-22T18:33:08.879Z,10.90
2019-03-22T18:35:41.137Z,11.10
2019-03-22T18:38:07.516Z,10.40
2019-03-22T18:40:34.029Z,9.40
2019-03-22T18:43:00.314Z,9.17
2019-03-22T18:45:26.726Z,7.67
2019-03-22T18:47:53.404Z,7.87
2019-03-22T18:50:19.989Z,8.03
2019-03-22T18:52:46.359Z,7.40
2019-03-22T18:55:13.016Z,7.33
2019-03-22T18:57:41.570Z,7.97
2019-03-22T19:00:14.046Z,6.63
2019-03-22T19:02:40.513Z,6.70
2019-03-22T19:05:07.483Z,7.73
2019-03-22T19:07:34.121Z,7.20
2019-03-22T19:10:00.480Z,8.20
2019-03-22T19:12:26.801Z,7.63
2019-03-22T19:14:53.260Z,7.50
2019-03-22T19:17:19.667Z,8.40
2019-03-22T19:19:46.016Z,9.70
2019-03-22T19:22:12.473Z,8.60
2019-03-22T19:24:38.831Z,8.60
2019-03-22T19:27:05.406Z,12.27
2019-03-22T19:29:31.779Z,12.57
2019-03-22T19:32:00.271Z,11.97
2019-03-22T19:34:26.642Z,16.33
2019-03-22T19:36:53.046Z,13.43
2019-03-22T19:39:19.683Z,12.30
2019-03-22T19:41:46.232Z,13.93
2019-03-22T19:44:12.517Z,13.53
2019-03-22T19:46:39.197Z,14.60
2019-03-22T19:49:05.728Z,17.53
2019-03-22T19:51:32.159Z,15.03
2019-03-22T19:53:58.565Z,15.33
2019-03-22T19:56:25.244Z,13.10
2019-03-22T19:58:51.864Z,13.80
2019-03-22T20:01:18.412Z,14.07
2019-03-22T20:03:45.081Z,12.77
2019-03-22T20:06:11.589Z,10.77
2019-03-22T20:08:38.014Z,11.23
2019-03-22T20:11:04.679Z,10.00
2019-03-22T20:13:31.068Z,10.10
2019-03-22T20:15:57.426Z,11.73
2019-03-22T20:18:23.747Z,9.53
2019-03-22T20:20:50.417Z,8.97
2019-03-22T20:23:16.835Z,7.97
2019-03-22T20:25:43.223Z,7.33
2019-03-22T20:28:09.860Z,7.67
2019-03-22T20:30:36.328Z,7.40
2019-03-22T20:33:03.288Z,7.10
2019-03-22T20:35:29.992Z,7.30
2019-03-22T20:37:57.665Z,6.97
2019-03-22T20:40:24.125Z,9.13
2019-03-22T20:42:50.795Z,8.27
2019-03-22T20:45:24.032Z,7.03
2019-03-22T20:47:45.534Z,7.13
2019-03-22T20:50:12.401Z,7.03
2019-03-22T20:52:39.177Z,8.10
2019-03-22T20:55:07.265Z,6.83
2019-03-22T20:57:34.241Z,7.23
2019-03-22T21:00:00.875Z,7.70
2019-03-22T21:02:27.333Z,5.73
2019-03-22T21:04:54.982Z,5.90
2019-03-22T21:07:21.431Z,6.33
2019-03-22T21:09:47.911Z,6.07
2019-03-22T21:12:14.561Z,5.37
2019-03-22T21:14:40.953Z,5.17
2019-03-22T21:17:07.324Z,5.30
2019-03-22T21:19:33.988Z,5.20
2019-03-22T21:22:00.352Z,4.83
2019-03-22T21:24:27.035Z,5.77
2019-03-22T21:26:53.694Z,4.60
2019-03-22T21:29:20.187Z,5.23
2019-03-22T21:31:46.693Z,5.23
2019-03-22T21:34:13.489Z,6.00
2019-03-22T21:36:40.140Z,6.67
2019-03-22T21:39:06.886Z,5.87
2019-03-22T21:41:37.351Z,5.10
2019-03-22T21:44:07.702Z,6.60
2019-03-22T21:46:44.261Z,5.47
2019-03-22T21:49:14.202Z,8.00
2019-03-22T21:51:43.671Z,5.47
2019-03-22T21:54:14.445Z,5.90
2019-03-22T21:56:47.246Z,6.03
2019-03-22T21:59:21.009Z,5.87
2019-03-22T22:01:47.421Z,6.00
2019-03-22T22:04:14.136Z,6.53
2019-03-22T22:06:43.595Z,6.33
2019-03-22T22:09:09.985Z,5.50
2019-03-22T22:11:36.332Z,6.47
2019-03-22T22:14:02.809Z,6.63
2019-03-22T22:16:29.583Z,6.40
2019-03-22T22:18:55.975Z,7.00
2019-03-22T22:21:22.525Z,6.23
2019-03-22T22:23:50.079Z,6.20
2019-03-22T22:26:16.463Z,6.10
2019-03-22T22:28:42.856Z,6.80
2019-03-22T22:31:09.513Z,5.90
2019-03-22T22:33:35.799Z,8.03
2019-03-22T22:36:02.390Z,7.37
2019-03-22T22:38:28.751Z,8.07
2019-03-22T22:40:55.373Z,7.63
2019-03-22T22:43:21.721Z,7.23
2019-03-22T22:45:48.131Z,7.10
2019-03-22T22:48:14.487Z,6.47
2019-03-22T22:50:41.142Z,7.70
2019-03-22T22:53:07.599Z,9.57
2019-03-22T22:55:34.000Z,8.70
2019-03-22T22:58:00.280Z,7.70
2019-03-22T23:00:27.714Z,6.93
2019-03-22T23:02:56.017Z,7.30
2019-03-22T23:05:22.356Z,11.03
2019-03-22T23:07:48.730Z,10.23
2019-03-22T23:10:15.513Z,9.97
2019-03-22T23:12:42.421Z,8.33
2019-03-22T23:15:09.128Z,7.57
2019-03-22T23:17:36.020Z,11.20
2019-03-22T23:20:04.591Z,11.47
2019-03-22T23:22:30.989Z,10.10
2019-03-22T23:24:57.389Z,15.57
2019-03-22T23:27:23.753Z,10.40
2019-03-22T23:29:50.424Z,9.00
2019-03-22T23:32:17.158Z,8.87
2019-03-22T23:34:43.864Z,9.30
2019-03-22T23:37:10.480Z,9.27
2019-03-22T23:39:37.143Z,7.90
2019-03-22T23:42:03.707Z,8.10
2019-03-22T23:44:30.186Z,7.50
2019-03-22T23:46:56.590Z,6.83
2019-03-22T23:49:22.989Z,8.17
2019-03-22T23:51:49.379Z,6.53
2019-03-22T23:54:16.004Z,7.57
2019-03-22T23:56:42.432Z,6.57
2019-03-22T23:59:09.064Z,7.43
